Time;durP1;ratioP1;P1;durP2;ratioP2;P2;SDS_P1;SDS_P2;PMS_P1;PMS_P2;Temp;Humidity;BMP_temperature;BMP_pressure;BME280_temperature;BME280_humidity;BME280_pressure;Samples;Min_cycle;Max_cycle;Signal;HPM_P1;HPM_P2
2022/10/11 00:00:04;;;;;;;15.40;7.77;;;;;;;7.93;95.38;102354.50;5245629;28;20029;-74
2022/10/11 00:02:35;;;;;;;17.23;7.27;;;;;;;7.97;94.97;102355.31;5253189;28;20017;-75
2022/10/11 00:05:08;;;;;;;34.47;9.70;;;;;;;7.86;94.86;102355.56;5253110;28;20045;-75
2022/10/11 00:07:39;;;;;;;17.73;7.67;;;;;;;7.71;96.60;102348.97;5240111;28;20021;-75
2022/10/11 00:10:10;;;;;;;20.00;7.93;;;;;;;7.84;96.58;102350.38;5248530;28;20535;-75
2022/10/11 00:12:42;;;;;;;16.23;7.73;;;;;;;7.72;98.63;102353.28;5238118;28;20032;-74
2022/10/11 00:15:16;;;;;;;17.07;6.87;;;;;;;7.47;100.00;102362.50;5241247;28;20156;-74
2022/10/11 00:17:47;;;;;;;17.02;7.55;;;;;;;7.58;100.00;102353.59;5252714;28;20036;-74
2022/10/11 00:20:18;;;;;;;18.37;7.33;;;;;;;7.65;100.00;102362.13;5255527;28;20025;-75
2022/10/11 00:22:50;;;;;;;17.90;8.67;;;;;;;7.56;100.00;102360.59;5241339;28;20480;-75
2022/10/11 00:25:21;;;;;;;13.63;6.60;;;;;;;7.50;100.00;102367.66;5253644;28;20021;-75
2022/10/11 00:27:53;;;;;;;19.40;7.67;;;;;;;7.32;100.00;102370.66;5258052;28;20506;-75
2022/10/11 00:30:24;;;;;;;17.37;7.13;;;;;;;7.37;100.00;102367.06;5244174;28;20029;-75
2022/10/11 00:32:56;;;;;;;15.47;6.77;;;;;;;7.30;100.00;102369.84;5255926;28;20091;-74
2022/10/11 00:35:27;;;;;;;16.00;6.17;;;;;;;7.15;100.00;102356.25;5242368;28;20040;-74
2022/10/11 00:37:58;;;;;;;15.10;6.03;;;;;;;7.26;100.00;102374.28;5256853;28;20032;-74
2022/10/11 00:40:30;;;;;;;15.30;6.20;;;;;;;7.33;100.00;102378.44;5256753;28;20026;-74
2022/10/11 00:43:01;;;;;;;15.97;7.40;;;;;;;7.31;100.00;102382.84;5254911;28;20112;-74
2022/10/11 00:45:32;;;;;;;21.23;7.07;;;;;;;7.23;100.00;102385.63;5248731;28;20026;-74
2022/10/11 00:48:13;;;;;;;14.63;7.00;;;;;;;7.53;100.00;102381.50;5236818;28;20369;-74
2022/10/11 00:50:44;;;;;;;13.63;6.63;;;;;;;7.28;100.00;102392.50;5237062;28;20120;-74
2022/10/11 00:53:15;;;;;;;12.50;6.27;;;;;;;7.41;100.00;102388.72;5247740;28;20112;-74
2022/10/11 00:55:52;;;;;;;17.17;7.40;;;;;;;7.24;100.00;102387.31;5242147;28;20620;-74
2022/10/11 00:58:24;;;;;;;17.33;6.60;;;;;;;7.06;100.00;102383.34;5253734;28;20031;-74
2022/10/11 01:00:56;;;;;;;15.63;7.33;;;;;;;7.05;100.00;102391.22;5248914;28;20033;-74
2022/10/11 01:03:30;;;;;;;13.70;6.87;;;;;;;7.29;100.00;102384.63;5246003;28;20059;-74
2022/10/11 01:06:02;;;;;;;20.67;7.63;;;;;;;7.06;100.00;102375.53;5250715;28;20081;-75
2022/10/11 01:08:33;;;;;;;14.60;6.77;;;;;;;7.24;100.00;102402.94;5236147;28;20038;-75
2022/10/11 01:11:05;;;;;;;17.77;6.60;;;;;;;7.22;100.00;102399.53;5250120;28;20017;-75
2022/10/11 01:13:39;;;;;;;18.03;6.50;;;;;;;7.11;100.00;102391.94;5247065;28;20037;-74
2022/10/11 01:16:27;;;;;;;17.08;8.23;;;;;;;7.19;100.00;102393.53;5246630;28;20042;-75
2022/10/11 01:19:13;;;;;;;17.37;6.90;;;;;;;7.16;100.00;102397.03;5252531;28;20455;-75
2022/10/11 01:21:50;;;;;;;15.80;7.10;;;;;;;7.05;100.00;102392.03;5237481;28;20399;-75
2022/10/11 01:24:54;;;;;;;17.47;6.83;;;;;;;7.34;100.00;102398.44;5255993;28;20056;-75
2022/10/11 01:27:44;;;;;;;14.90;6.93;;;;;;;7.28;100.00;102402.91;5238293;28;20127;-75
2022/10/11 01:30:24;;;;;;;16.67;6.30;;;;;;;7.32;100.00;102405.41;5248323;28;20566;-75
2022/10/11 01:33:04;;;;;;;14.43;6.47;;;;;;;7.16;100.00;102399.66;5250873;28;20021;-75
2022/10/11 01:35:36;;;;;;;15.03;6.40;;;;;;;6.95;100.00;102407.00;5240260;28;20052;-74
2022/10/11 01:38:11;;;;;;;19.90;6.90;;;;;;;6.97;100.00;102404.38;5251356;28;20025;-75
2022/10/11 01:40:49;;;;;;;12.07;5.80;;;;;;;6.96;100.00;102403.53;5249039;28;20120;-75
2022/10/11 01:43:23;;;;;;;16.80;6.67;;;;;;;6.85;100.00;102406.34;5237130;28;20029;-75
2022/10/11 01:45:56;;;;;;;15.73;6.90;;;;;;;6.77;100.00;102410.84;5251937;28;20029;-75
2022/10/11 01:48:28;;;;;;;12.18;5.78;;;;;;;6.75;100.00;102413.47;5243213;28;20033;-75
2022/10/11 01:51:02;;;;;;;16.83;7.63;;;;;;;6.72;100.00;102403.09;5239482;28;20407;-75
2022/10/11 01:53:53;;;;;;;16.70;7.30;;;;;;;6.71;100.00;102410.94;5241414;28;20033;-74
2022/10/11 01:56:44;;;;;;;16.57;6.87;;;;;;;6.88;100.00;102400.19;5245818;28;20045;-75
2022/10/11 01:59:51;;;;;;;15.00;6.57;;;;;;;6.89;100.00;102394.94;5250897;28;20044;-74
2022/10/11 02:02:28;;;;;;;13.77;6.10;;;;;;;6.73;100.00;102417.84;5247618;28;20422;-75
2022/10/11 02:05:05;;;;;;;14.70;5.93;;;;;;;6.84;100.00;102422.00;5239034;28;20037;-75
2022/10/11 02:07:48;;;;;;;11.33;6.13;;;;;;;6.84;100.00;102416.78;5235641;28;20461;-75
2022/10/11 02:10:33;;;;;;;15.17;6.57;;;;;;;6.71;100.00;102413.53;5245966;28;20033;-75
2022/10/11 02:13:11;;;;;;;;;;;;;;;7.08;100.00;102414.59;5240525;28;20135;-74
2022/10/11 02:15:45;;;;;;;9.40;4.93;;;;;;;6.72;100.00;102423.91;5254838;28;19920;-75
2022/10/11 02:18:23;;;;;;;13.50;6.03;;;;;;;6.73;100.00;102416.97;5254229;28;20175;-75
2022/10/11 02:20:59;;;;;;;13.50;6.33;;;;;;;6.59;100.00;102419.81;5254591;28;20456;-75
2022/10/11 02:23:47;;;;;;;18.90;6.30;;;;;;;6.52;100.00;102409.53;5244428;28;20075;-75
2022/10/11 02:26:20;;;;;;;13.50;6.27;;;;;;;6.40;100.00;102425.34;5240556;28;20064;-74
2022/10/11 02:28:56;;;;;;;9.53;5.60;;;;;;;6.62;100.00;102409.34;5254246;28;20048;-75
2022/10/11 02:31:31;;;;;;;15.60;6.47;;;;;;;6.72;100.00;102418.72;5256908;28;20029;-75
2022/10/11 02:34:13;;;;;;;12.77;5.57;;;;;;;6.83;100.00;102422.84;5255956;28;20056;-74
2022/10/11 02:36:49;;;;;;;14.77;5.40;;;;;;;6.51;100.00;102428.63;5241816;28;20062;-74
2022/10/11 02:39:28;;;;;;;11.20;5.70;;;;;;;6.42;100.00;102418.38;5245295;28;20519;-74
2022/10/11 02:42:03;;;;;;;12.97;5.90;;;;;;;6.37;100.00;102434.03;5241342;28;20442;-75
2022/10/11 02:44:39;;;;;;;12.40;5.70;;;;;;;6.36;100.00;102434.06;5249551;28;20041;-75
2022/10/11 02:47:11;;;;;;;12.40;5.50;;;;;;;6.23;100.00;102423.03;5238626;28;20041;-75
2022/10/11 02:49:42;;;;;;;17.43;5.50;;;;;;;6.29;100.00;102426.38;5236868;28;20030;-75
2022/10/11 02:52:14;;;;;;;13.07;5.50;;;;;;;6.20;100.00;102413.50;5237654;28;20040;-75
2022/10/11 02:54:45;;;;;;;15.70;6.23;;;;;;;6.21;100.00;102424.78;5243458;28;20040;-75
2022/10/11 02:57:16;;;;;;;15.00;5.07;;;;;;;6.24;100.00;102425.59;5254716;28;20043;-75
2022/10/11 02:59:47;;;;;;;10.87;5.43;;;;;;;6.26;100.00;102426.44;5256502;28;20423;-75
2022/10/11 03:02:19;;;;;;;12.53;4.80;;;;;;;5.91;100.00;102415.66;5237902;28;20053;-75
2022/10/11 03:04:50;;;;;;;11.47;6.27;;;;;;;5.95;100.00;102419.06;5249173;28;20095;-75
2022/10/11 03:07:21;;;;;;;9.73;5.00;;;;;;;6.19;100.00;102426.53;5237481;28;20029;-76
2022/10/11 03:09:53;;;;;;;11.97;4.67;;;;;;;6.35;100.00;102433.25;5255510;28;20414;-76
2022/10/11 03:12:24;;;;;;;12.37;5.80;;;;;;;6.41;100.00;102424.44;5239025;28;20025;-75
2022/10/11 03:14:55;;;;;;;15.27;6.27;;;;;;;6.43;100.00;102433.09;5236764;28;20043;-76
2022/10/11 03:17:27;;;;;;;9.97;5.33;;;;;;;6.23;100.00;102442.06;5249301;28;20391;-75
2022/10/11 03:19:58;;;;;;;14.37;5.27;;;;;;;6.09;100.00;102441.44;5248957;28;20017;-76
2022/10/11 03:22:29;;;;;;;11.40;5.23;;;;;;;6.03;100.00;102432.81;5243967;28;20037;-75
2022/10/11 03:25:01;;;;;;;10.33;5.03;;;;;;;6.00;100.00;102435.47;5240313;28;20025;-76
2022/10/11 03:27:32;;;;;;;12.50;4.83;;;;;;;6.10;100.00;102443.16;5239224;28;20033;-74
2022/10/11 03:30:04;;;;;;;10.80;5.27;;;;;;;5.75;100.00;102435.81;5245430;28;20028;-74
2022/10/11 03:32:36;;;;;;;10.50;5.43;;;;;;;5.93;100.00;102447.69;5258145;28;20369;-74
2022/10/11 03:35:07;;;;;;;14.97;5.53;;;;;;;5.90;100.00;102446.88;5257765;28;20040;-75
2022/10/11 03:37:39;;;;;;;10.33;5.13;;;;;;;5.90;100.00;102442.53;5254499;28;20486;-75
2022/10/11 03:40:11;;;;;;;10.90;5.50;;;;;;;5.77;100.00;102448.78;5246057;28;20064;-75
2022/10/11 03:42:43;;;;;;;12.17;4.83;;;;;;;5.75;100.00;102454.00;5259080;28;20044;-75
2022/10/11 03:45:14;;;;;;;13.00;5.60;;;;;;;5.77;100.00;102452.25;5255201;28;20033;-75
2022/10/11 03:47:45;;;;;;;10.73;4.73;;;;;;;5.71;100.00;102456.69;5246307;28;20094;-75
2022/10/11 03:50:17;;;;;;;9.90;5.00;;;;;;;5.66;100.00;102438.53;5251565;28;20040;-75
2022/10/11 03:52:48;;;;;;;16.23;5.73;;;;;;;5.67;100.00;102455.84;5239602;28;20033;-75
2022/10/11 03:55:19;;;;;;;12.37;5.33;;;;;;;5.88;100.00;102466.84;5240876;28;20021;-75
2022/10/11 03:57:50;;;;;;;11.87;5.37;;;;;;;5.96;100.00;102465.00;5258127;28;20124;-75
2022/10/11 04:00:22;;;;;;;13.43;5.47;;;;;;;5.91;100.00;102449.47;5251680;28;20057;-75
2022/10/11 04:02:53;;;;;;;10.23;5.23;;;;;;;5.73;100.00;102470.50;5247434;28;20029;-75
2022/10/11 04:05:24;;;;;;;11.13;5.57;;;;;;;5.64;100.00;102461.94;5245039;28;20121;-75
2022/10/11 04:07:56;;;;;;;11.57;5.37;;;;;;;5.80;100.00;102457.41;5236907;28;20035;-75
2022/10/11 04:10:27;;;;;;;11.40;5.80;;;;;;;5.67;100.00;102467.09;5238476;28;20040;-75
2022/10/11 04:13:00;;;;;;;14.23;6.17;;;;;;;5.64;100.00;102467.13;5239364;28;20025;-75
2022/10/11 04:15:31;;;;;;;10.13;4.97;;;;;;;5.65;100.00;102468.00;5248046;28;20102;-75
2022/10/11 04:18:03;;;;;;;16.37;5.73;;;;;;;5.44;100.00;102455.28;5258530;28;20064;-75
2022/10/11 04:20:35;;;;;;;12.77;5.47;;;;;;;5.58;100.00;102467.22;5242642;28;20025;-75
2022/10/11 04:23:06;;;;;;;10.80;5.50;;;;;;;5.59;100.00;102470.66;5244554;28;20079;-75
2022/10/11 04:25:38;;;;;;;10.83;5.53;;;;;;;5.30;100.00;102470.16;5258410;28;20083;-75
2022/10/11 04:28:09;;;;;;;12.17;5.30;;;;;;;5.50;100.00;102480.31;5257442;28;20051;-75
2022/10/11 04:30:41;;;;;;;10.27;5.97;;;;;;;5.45;100.00;102476.91;5258252;28;20558;-75
2022/10/11 04:33:12;;;;;;;10.43;5.73;;;;;;;5.48;100.00;102486.41;5242930;28;20128;-75
2022/10/11 04:35:43;;;;;;;13.00;4.97;;;;;;;5.50;100.00;102485.50;5235989;28;20033;-75
2022/10/11 04:38:15;;;;;;;12.10;5.20;;;;;;;5.41;100.00;102498.63;5236389;28;20030;-75
2022/10/11 04:40:46;;;;;;;16.33;7.40;;;;;;;5.69;100.00;102490.47;5239640;28;20057;-75
2022/10/11 04:43:17;;;;;;;12.23;5.23;;;;;;;5.49;100.00;102480.31;5241070;28;20029;-75
2022/10/11 04:45:49;;;;;;;12.93;5.37;;;;;;;5.52;100.00;102478.56;5247151;28;20025;-75
2022/10/11 04:48:20;;;;;;;9.97;5.40;;;;;;;5.69;100.00;102495.66;5257333;28;20037;-75
2022/10/11 04:50:51;;;;;;;12.57;5.33;;;;;;;5.75;100.00;102493.00;5255684;28;20025;-75
2022/10/11 04:53:23;;;;;;;12.53;5.67;;;;;;;5.51;100.00;102492.44;5257088;28;20029;-75
2022/10/11 04:56:03;;;;;;;11.33;4.60;;;;;;;5.64;100.00;102507.88;5263572;28;20067;-75
2022/10/11 04:58:35;;;;;;;14.00;5.30;;;;;;;5.52;100.00;102504.53;5249350;28;20468;-75
2022/10/11 05:01:08;;;;;;;14.13;6.30;;;;;;;5.45;100.00;102501.16;5245177;28;20067;-75
2022/10/11 05:03:40;;;;;;;10.90;5.27;;;;;;;5.24;100.00;102473.66;5261302;28;20494;-75
2022/10/11 05:06:11;;;;;;;10.43;5.10;;;;;;;5.39;100.00;102498.66;5256303;28;20032;-75
2022/10/11 05:08:42;;;;;;;12.70;5.10;;;;;;;5.46;100.00;102483.84;5255843;28;20045;-75
2022/10/11 05:11:16;;;;;;;14.33;5.97;;;;;;;5.57;100.00;102496.69;5242518;28;20038;-77
2022/10/11 05:13:47;;;;;;;14.10;5.97;;;;;;;5.49;100.00;102499.38;5258921;28;20035;-74
2022/10/11 05:16:18;;;;;;;12.87;5.07;;;;;;;5.61;100.00;102506.19;5245003;28;20030;-77
2022/10/11 05:18:50;;;;;;;11.47;5.37;;;;;;;5.47;100.00;102495.94;5235690;28;20021;-78
2022/10/11 05:21:24;;;;;;;14.03;5.63;;;;;;;5.33;100.00;102504.75;5234405;28;20039;-76
2022/10/11 05:23:56;;;;;;;14.80;7.00;;;;;;;5.32;100.00;102509.97;5241970;28;20029;-75
2022/10/11 05:26:27;;;;;;;11.03;5.00;;;;;;;5.26;100.00;102504.81;5248535;28;20064;-74
2022/10/11 05:28:59;;;;;;;9.90;5.33;;;;;;;5.37;100.00;102502.13;5253797;28;20068;-75
2022/10/11 05:31:31;;;;;;;12.03;5.57;;;;;;;5.26;100.00;102508.28;5250958;28;20116;-75
2022/10/11 05:34:02;;;;;;;9.57;5.47;;;;;;;5.15;100.00;102510.16;5242703;28;20049;-75
2022/10/11 05:36:33;;;;;;;12.93;6.23;;;;;;;5.14;100.00;102511.00;5255334;28;20541;-75
2022/10/11 05:39:05;;;;;;;12.73;5.67;;;;;;;5.41;100.00;102519.41;5255562;28;20055;-75
2022/10/11 05:41:36;;;;;;;17.83;6.60;;;;;;;5.21;100.00;102507.47;5255860;28;20043;-75
2022/10/11 05:44:07;;;;;;;16.07;6.10;;;;;;;5.18;100.00;102515.31;5255422;28;20057;-74
2022/10/11 05:46:39;;;;;;;9.07;5.37;;;;;;;5.29;100.00;102526.44;5256205;28;20025;-72
2022/10/11 05:49:10;;;;;;;10.20;5.17;;;;;;;5.15;100.00;102528.34;5256005;28;20586;-72
2022/10/11 05:51:41;;;;;;;10.63;5.60;;;;;;;5.14;100.00;102530.06;5253410;28;20117;-72
2022/10/11 05:54:12;;;;;;;11.93;6.13;;;;;;;5.06;100.00;102524.09;5240151;28;20048;-72
2022/10/11 05:56:44;;;;;;;10.43;6.73;;;;;;;4.87;100.00;102492.22;5246207;28;20037;-73
2022/10/11 05:59:15;;;;;;;13.30;7.30;;;;;;;5.13;100.00;102524.88;5245028;28;20028;-73
2022/10/11 06:01:47;;;;;;;18.13;6.60;;;;;;;5.21;100.00;102533.47;5251219;28;20090;-74
2022/10/11 06:04:19;;;;;;;10.97;6.23;;;;;;;5.09;100.00;102539.63;5247870;28;20068;-73
2022/10/11 06:06:50;;;;;;;14.53;6.00;;;;;;;5.06;100.00;102519.72;5247733;28;20559;-75
2022/10/11 06:09:21;;;;;;;16.27;7.33;;;;;;;5.04;100.00;102536.22;5249130;28;20021;-76
2022/10/11 06:11:52;;;;;;;17.00;5.90;;;;;;;5.25;100.00;102536.88;5250105;28;20040;-72
2022/10/11 06:14:24;;;;;;;13.70;5.53;;;;;;;5.36;100.00;102541.97;5252390;28;20033;-72
2022/10/11 06:16:56;;;;;;;14.40;6.23;;;;;;;5.06;100.00;102527.53;5238337;28;20034;-73
2022/10/11 06:19:27;;;;;;;12.80;6.40;;;;;;;5.24;100.00;102545.53;5239978;28;20074;-70
2022/10/11 06:21:58;;;;;;;16.90;6.37;;;;;;;5.25;100.00;102544.69;5252318;28;20044;-73
2022/10/11 06:24:29;;;;;;;11.50;5.80;;;;;;;5.33;100.00;102551.53;5265272;28;20085;-71
2022/10/11 06:27:01;;;;;;;15.97;6.10;;;;;;;5.38;100.00;102558.41;5261343;28;20039;-72
2022/10/11 06:29:33;;;;;;;12.47;5.67;;;;;;;5.24;100.00;102563.72;5269299;28;20040;-74
2022/10/11 06:32:04;;;;;;;17.77;5.97;;;;;;;5.13;100.00;102551.69;5266287;28;20021;-72
2022/10/11 06:34:36;;;;;;;21.43;7.17;;;;;;;5.35;100.00;102566.22;5266424;28;20467;-71
2022/10/11 06:37:07;;;;;;;16.23;6.70;;;;;;;5.31;100.00;102571.47;5259996;28;20147;-70
2022/10/11 06:39:38;;;;;;;21.37;7.03;;;;;;;5.33;100.00;102561.91;5268057;28;20028;-71
2022/10/11 06:42:10;;;;;;;15.87;5.93;;;;;;;5.33;100.00;102563.66;5252887;28;20487;-70
2022/10/11 06:44:41;;;;;;;16.23;6.53;;;;;;;5.42;100.00;102570.50;5238082;28;20045;-73
2022/10/11 06:47:13;;;;;;;25.03;7.37;;;;;;;5.33;100.00;102568.84;5239328;28;20017;-72
2022/10/11 06:49:44;;;;;;;14.20;6.97;;;;;;;5.42;100.00;102575.69;5245152;28;20133;-72
2022/10/11 06:52:15;;;;;;;18.60;6.20;;;;;;;5.48;100.00;102574.78;5246781;28;20028;-72
2022/10/11 06:54:46;;;;;;;16.77;6.83;;;;;;;5.50;100.00;102573.88;5252108;28;20044;-71
2022/10/11 06:57:18;;;;;;;11.77;6.97;;;;;;;5.70;100.00;102578.00;5249531;28;20061;-70
2022/10/11 06:59:49;;;;;;;13.93;6.70;;;;;;;5.43;100.00;102574.81;5247579;28;20048;-70
2022/10/11 07:02:20;;;;;;;18.63;7.07;;;;;;;5.64;100.00;102570.25;5247510;28;20068;-72
2022/10/11 07:04:51;;;;;;;18.70;6.60;;;;;;;5.72;100.00;102584.06;5250161;28;20095;-72
2022/10/11 07:07:23;;;;;;;16.97;7.30;;;;;;;5.75;100.00;102591.81;5243653;28;20104;-71
2022/10/11 07:09:54;;;;;;;17.07;6.97;;;;;;;5.79;100.00;102590.03;5249078;28;20021;-72
2022/10/11 07:12:25;;;;;;;14.20;5.90;;;;;;;5.86;100.00;102593.44;5248545;28;20041;-71
2022/10/11 07:14:57;;;;;;;17.30;7.80;;;;;;;5.99;100.00;102588.91;5259510;28;20033;-70
2022/10/11 07:17:28;;;;;;;17.00;6.20;;;;;;;6.09;100.00;102597.53;5258953;28;20036;-70
2022/10/11 07:19:59;;;;;;;16.57;6.67;;;;;;;6.17;100.00;102603.47;5258840;28;20037;-71
2022/10/11 07:22:30;;;;;;;19.90;7.37;;;;;;;6.24;100.00;102594.72;5258527;28;20028;-71
2022/10/11 07:25:02;;;;;;;12.13;7.13;;;;;;;6.36;100.00;102600.63;5258691;28;20021;-71
2022/10/11 07:27:34;;;;;;;20.40;7.97;;;;;;;6.44;100.00;102596.19;5258820;28;20099;-71
2022/10/11 07:30:05;;;;;;;23.63;9.97;;;;;;;6.60;100.00;102604.63;5254471;28;20029;-71
2022/10/11 07:32:37;;;;;;;23.17;11.10;;;;;;;6.64;100.00;102600.25;5258575;28;20368;-71
2022/10/11 07:35:08;;;;;;;25.37;11.47;;;;;;;6.76;100.00;102604.41;5258074;28;20037;-71
2022/10/11 07:37:39;;;;;;;33.87;13.47;;;;;;;6.92;100.00;102607.63;5257029;28;20040;-71
2022/10/11 07:40:11;;;;;;;19.67;11.17;;;;;;;7.10;100.00;102610.84;5258320;28;20040;-70
2022/10/11 07:42:42;;;;;;;20.57;10.93;;;;;;;7.14;100.00;102605.53;5258865;28;20481;-71
2022/10/11 07:45:13;;;;;;;27.70;9.30;;;;;;;7.30;100.00;102613.09;5257336;28;20471;-71
2022/10/11 07:47:45;;;;;;;21.17;8.73;;;;;;;7.39;100.00;102604.25;5258696;28;20025;-71
2022/10/11 07:50:16;;;;;;;21.73;8.77;;;;;;;7.54;100.00;102612.69;5257964;28;20024;-71
2022/10/11 07:52:48;;;;;;;24.70;9.27;;;;;;;7.77;100.00;102603.56;5258001;28;20036;-71
2022/10/11 07:55:19;;;;;;;17.10;7.93;;;;;;;7.97;100.00;102611.00;5258205;28;20024;-71
2022/10/11 07:57:50;;;;;;;22.00;8.83;;;;;;;8.10;100.00;102609.84;5257990;28;20037;-71
2022/10/11 08:00:22;;;;;;;13.43;6.33;;;;;;;8.40;100.00;102617.06;5257344;28;20048;-71
2022/10/11 08:02:53;;;;;;;14.23;6.67;;;;;;;8.79;100.00;102617.97;5257200;28;20031;-71
2022/10/11 08:05:24;;;;;;;11.53;6.03;;;;;;;9.51;100.00;102614.41;5257535;28;20048;-71
2022/10/11 08:07:57;;;;;;;18.40;6.03;;;;;;;10.45;100.00;102619.63;5256893;28;20033;-71
2022/10/11 08:10:28;;;;;;;10.20;4.67;;;;;;;11.90;100.00;102618.34;5257206;28;20071;-71
2022/10/11 08:12:59;;;;;;;15.87;6.60;;;;;;;13.02;100.00;102619.28;5258145;28;20685;-71
2022/10/11 08:15:30;;;;;;;12.63;4.83;;;;;;;14.10;96.31;102614.63;5258130;28;20033;-71
2022/10/11 08:18:02;;;;;;;12.57;4.97;;;;;;;14.88;86.03;102629.44;5257610;28;20052;-71
2022/10/11 08:20:33;;;;;;;10.07;4.23;;;;;;;15.60;81.43;102617.03;5257430;28;20464;-71
2022/10/11 08:23:05;;;;;;;12.20;4.03;;;;;;;15.99;76.29;102624.69;5255362;28;20033;-71
2022/10/11 08:25:42;;;;;;;12.27;3.30;;;;;;;16.41;76.24;102631.19;5257797;28;20040;-72
2022/10/11 08:28:16;;;;;;;10.10;3.80;;;;;;;16.43;69.69;102625.81;5257395;28;20036;-72
2022/10/11 08:30:53;;;;;;;17.55;3.85;;;;;;;15.77;74.24;102637.25;5255488;28;20057;-72
2022/10/11 08:33:25;;;;;;;14.20;4.83;;;;;;;14.62;76.88;102623.63;5255889;28;20056;-72
2022/10/11 08:35:57;;;;;;;14.23;4.10;;;;;;;14.18;79.93;102623.94;5237719;28;20095;-72
2022/10/11 08:38:28;;;;;;;13.20;4.53;;;;;;;13.59;82.73;102616.94;5236875;28;20116;-72
2022/10/11 08:41:00;;;;;;;16.63;4.40;;;;;;;13.75;86.07;102636.38;5235946;28;20104;-71
2022/10/11 08:43:56;;;;;;;13.53;4.17;;;;;;;15.53;83.27;102634.13;5235533;28;20657;-71
2022/10/11 08:46:30;;;;;;;11.37;4.90;;;;;;;16.48;75.49;102625.56;5236415;28;20116;-72
2022/10/11 08:49:05;;;;;;;11.70;3.87;;;;;;;17.52;61.26;102629.25;5241854;28;20028;-72
2022/10/11 08:51:51;;;;;;;16.20;4.50;;;;;;;18.86;62.54;102634.06;5233901;28;20091;-71
2022/10/11 08:54:36;;;;;;;14.90;3.37;;;;;;;19.99;57.54;102636.16;5254637;28;20021;-76
2022/10/11 08:57:14;;;;;;;9.15;3.05;;;;;;;20.70;54.33;102639.97;5240250;28;20087;-73
2022/10/11 08:59:50;;;;;;;11.80;3.10;;;;;;;20.98;50.65;102638.75;5236294;28;20021;-75
2022/10/11 09:02:37;;;;;;;10.20;3.28;;;;;;;22.07;51.51;102624.13;5241250;28;20021;-75
2022/10/11 09:05:14;;;;;;;10.13;3.80;;;;;;;22.24;47.76;102641.41;5251028;28;20041;-73
2022/10/11 09:07:57;;;;;;;8.02;4.07;;;;;;;23.65;46.33;102656.44;5244580;28;20014;-73
2022/10/11 09:10:47;;;;;;;6.53;2.90;;;;;;;23.46;45.45;102643.03;5254386;28;20435;-77
2022/10/11 09:13:30;;;;;;;13.52;3.08;;;;;;;23.09;42.54;102653.22;5243431;28;20065;-73
2022/10/11 09:16:24;;;;;;;10.82;3.10;;;;;;;24.99;44.54;102648.16;5254280;28;20115;-73
2022/10/11 09:19:15;;;;;;;9.35;3.17;;;;;;;25.93;42.27;102652.75;5256738;28;20502;-74
2022/10/11 09:22:13;;;;;;;11.05;3.17;;;;;;;25.73;40.64;102658.19;5254107;28;20033;-72
2022/10/11 09:24:51;;;;;;;11.77;3.88;;;;;;;24.49;38.24;102658.88;5257178;28;20025;-77
2022/10/11 09:27:42;;;;;;;11.10;2.72;;;;;;;23.87;38.53;102662.59;5256743;28;20029;-75
2022/10/11 09:30:16;;;;;;;8.52;2.80;;;;;;;24.03;38.34;102663.88;5256785;28;20052;-77
2022/10/11 09:33:12;;;;;;;10.95;3.00;;;;;;;23.95;39.96;102661.88;5256822;28;20037;-74
2022/10/11 09:35:49;;;;;;;9.40;2.63;;;;;;;24.48;37.35;102653.69;5238466;28;20045;-77
2022/10/11 09:38:27;;;;;;;10.00;3.03;;;;;;;24.60;39.17;102655.22;5236107;28;20039;-75
2022/10/11 09:41:08;;;;;;;9.73;2.75;;;;;;;23.92;39.57;102656.81;5250353;28;20033;-79
2022/10/11 09:43:43;;;;;;;7.10;2.78;;;;;;;24.44;37.21;102654.94;5259546;28;20159;-77
2022/10/11 09:46:36;;;;;;;8.60;2.28;;;;;;;25.97;37.14;102620.06;5255613;28;20071;-75
2022/10/11 09:49:13;;;;;;;12.70;2.78;;;;;;;25.08;35.69;102652.63;5257550;28;20074;-75
2022/10/11 09:52:00;;;;;;;9.43;2.63;;;;;;;24.73;38.30;102656.78;5255501;28;20028;-76
2022/10/11 09:54:39;;;;;;;13.70;3.05;;;;;;;23.89;38.39;102657.94;5257008;28;20475;-77
2022/10/11 09:57:26;;;;;;;10.63;2.75;;;;;;;24.32;38.52;102660.44;5256896;28;20032;-80
2022/10/11 10:00:19;;;;;;;10.82;2.75;;;;;;;24.10;35.08;102656.16;5255621;28;20037;-73
2022/10/11 10:02:56;;;;;;;12.57;3.70;;;;;;;23.56;36.73;102662.63;5253860;28;20025;-70
2022/10/11 10:05:35;;;;;;;8.55;2.10;;;;;;;23.21;36.66;102656.66;5253207;28;20098;-72
2022/10/11 10:08:09;;;;;;;16.95;3.38;;;;;;;22.45;35.71;102651.28;5255856;28;20499;-71
2022/10/11 10:10:44;;;;;;;8.50;2.58;;;;;;;21.75;36.74;102652.38;5254605;28;20547;-71
2022/10/11 10:13:37;;;;;;;14.82;2.58;;;;;;;21.97;38.23;102655.19;5254923;28;20480;-72
2022/10/11 10:16:24;;;;;;;8.15;2.28;;;;;;;21.00;38.46;102652.78;5255530;28;20036;-72
2022/10/11 10:19:15;;;;;;;11.90;3.22;;;;;;;20.58;40.38;102650.56;5255522;28;20065;-72
2022/10/11 10:21:49;;;;;;;11.95;2.95;;;;;;;20.03;40.57;102650.97;5255089;28;20037;-72
2022/10/11 10:24:39;;;;;;;8.68;2.50;;;;;;;19.89;42.81;102643.97;5256086;28;20031;-72
2022/10/11 10:27:19;;;;;;;8.38;2.58;;;;;;;19.54;42.34;102641.03;5260227;28;20079;-71
2022/10/11 10:30:06;;;;;;;13.48;2.85;;;;;;;19.34;41.78;102648.59;5260566;28;20057;-72
2022/10/11 10:32:45;;;;;;;10.55;2.67;;;;;;;19.16;42.00;102644.53;5258746;28;20040;-71
2022/10/11 10:35:27;;;;;;;11.43;2.60;;;;;;;19.41;42.37;102648.19;5259146;28;20029;-71
2022/10/11 10:38:14;;;;;;;11.35;2.40;;;;;;;19.37;42.08;102647.53;5258325;28;20028;-71
2022/10/11 10:40:51;;;;;;;11.85;2.90;;;;;;;19.11;42.88;102644.88;5260442;28;20107;-71
2022/10/11 10:43:31;;;;;;;13.15;2.95;;;;;;;19.13;42.05;102644.75;5259816;28;20029;-72
2022/10/11 10:46:20;;;;;;;10.32;3.08;;;;;;;18.70;43.31;102646.66;5259834;28;20123;-72
2022/10/11 10:49:13;;;;;;;10.37;3.37;;;;;;;18.71;43.67;102646.53;5259251;28;20025;-72
2022/10/11 10:51:47;;;;;;;12.93;2.43;;;;;;;18.51;42.69;102645.22;5258685;28;20032;-71
2022/10/11 10:54:30;;;;;;;9.07;2.17;;;;;;;18.37;43.91;102643.47;5259733;28;20485;-72
2022/10/11 10:57:09;;;;;;;14.80;3.10;;;;;;;18.10;44.13;102631.84;5257553;28;20510;-72
2022/10/11 11:00:03;;;;;;;10.70;2.40;;;;;;;18.35;43.42;102625.00;5259724;28;20044;-72
2022/10/11 11:02:57;;;;;;;9.53;2.63;;;;;;;18.44;43.98;102634.16;5257972;28;20029;-71
2022/10/11 11:05:57;;;;;;;10.55;2.72;;;;;;;18.16;44.58;102632.41;5258253;28;20099;-72
2022/10/11 11:08:40;;;;;;;11.53;2.83;;;;;;;17.72;42.61;102635.97;5259260;28;20033;-72
2022/10/11 11:11:30;;;;;;;10.93;2.77;;;;;;;18.02;42.76;102627.03;5258078;28;20107;-71
2022/10/11 11:14:19;;;;;;;11.17;2.70;;;;;;;17.85;43.88;102632.53;5259050;28;20021;-72
2022/10/11 11:17:00;;;;;;;12.47;2.67;;;;;;;17.89;44.03;102624.31;5258506;28;20021;-71
2022/10/11 11:19:37;;;;;;;21.30;3.13;;;;;;;17.72;44.84;102621.84;5257614;28;20388;-72
2022/10/11 11:22:40;;;;;;;8.97;2.20;;;;;;;17.99;44.26;102623.72;5256215;28;20463;-71
2022/10/11 11:25:26;;;;;;;53.27;4.07;;;;;;;17.99;44.83;102619.28;5257990;28;20049;-70
2022/10/11 11:28:11;;;;;;;24.30;3.40;;;;;;;17.61;45.51;102620.72;5257875;28;20480;-71
2022/10/11 11:31:14;;;;;;;12.60;3.20;;;;;;;17.86;44.18;102611.25;5259470;28;20029;-70
2022/10/11 11:33:59;;;;;;;14.23;3.27;;;;;;;17.66;44.21;102608.03;5258764;28;20495;-70
2022/10/11 11:36:48;;;;;;;13.97;2.83;;;;;;;17.67;45.59;102614.19;5257251;28;20083;-71
2022/10/11 11:39:23;;;;;;;12.40;3.30;;;;;;;17.34;46.68;102607.38;5257372;28;20029;-72
2022/10/11 11:42:06;;;;;;;9.33;2.37;;;;;;;17.41;46.41;102604.28;5258311;28;20589;-71
2022/10/11 11:44:49;;;;;;;11.77;2.70;;;;;;;18.02;44.51;102607.63;5257123;28;20025;-70
2022/10/11 11:47:35;;;;;;;10.33;2.60;;;;;;;17.57;44.38;102605.97;5258188;28;20033;-70
2022/10/11 11:50:19;;;;;;;10.00;2.37;;;;;;;17.56;44.60;102596.31;5257840;28;20078;-72
2022/10/11 11:53:03;;;;;;;12.45;2.63;;;;;;;17.57;43.63;102591.88;5258891;28;20021;-71
2022/10/11 11:55:53;;;;;;;11.63;4.30;;;;;;;17.95;43.77;102591.25;5258647;28;20021;-72
2022/10/11 11:58:34;;;;;;;16.03;3.03;;;;;;;17.70;45.86;102597.28;5258386;28;20083;-71